Chanute Martin Johnson Airport
KCNU : now visible

Airfield :











YOU CAN JOIN US ON...

 
LOGIN :

Register | Disclaimer

   EN    FR    IT 

 









Legend :    VFR   Marginal VFR   IFR   Intensive IFR   Very Intensive IFR
Visi :
Ceiling :
>= 8 km
>= 3000ft
5 to 8 km
1000 to 3000 ft
1500m to 5 km
500 to 1000 ft
800 to 1500m
200 to 500 ft
< 800m
< 200 ft
Symbols :   Thunderstorms  Fog  Heavy snow  Heavy precipitations  Wind > 20 kt






- Airport Elevation : 1002 ft


KCNU - Chanute Martin Johnson

CURRENT METAR :
  • 220452Z AUTO 17010KT 10SM CLR 02/M03 A3023 RMK AO2 SLP245 T00221028

EXPIRED METARs :
  • 220352Z AUTO 15009KT 10SM CLR 02/M03 A3023 RMK AO2 SLP248 T00171028
  • 220252Z AUTO 15007KT 10SM CLR 01/M03 A3027 RMK AO2 SLP260 T00111033 58014

TAF KCNU
Valid from the 22 at 06:00 until the 23 at 06:00 UTC


220528Z 2206/2306 17012KT P6SM OVC120
FM220900 17013KT P6SM VCSH OVC035
FM221000 17014KT P6SM VCSH OVC025
FM221100 17014G22KT 5SM -SNRA OVC015
FM221400 16015G23KT 3SM -RASN OVC015
FM222100 17014KT 4SM -RA OVC008



MET'MAP, your aeronautical weather chart ! - Copyright ORBIFLY December 2007 - Disclaimer

ORBIFLY MET'MAP TEAM :

Programming & Development : Alexandra Zaïnal
Concept & original design : Baudouin d'Aumeries
Assistance for programming : Marc-Olivier Méhu
Technical & hardware support : Manuel Goepfert

Contact : metmap@orbifly.com




SOURCES & CREDITS :

   NOAA       Earth
Advisory